createdAt,value
2017-12-11T00:01:40.719Z,4.70
2017-12-11T00:04:09.764Z,12.50
2017-12-11T00:06:38.012Z,6.60
2017-12-11T00:09:06.293Z,5.27
2017-12-11T00:11:35.363Z,4.93
2017-12-11T00:14:04.379Z,3.90
2017-12-11T00:16:32.648Z,6.90
2017-12-11T00:19:00.895Z,4.97
2017-12-11T00:21:29.243Z,5.83
2017-12-11T00:23:57.500Z,7.20
2017-12-11T00:26:25.783Z,5.77
2017-12-11T00:28:54.053Z,7.90
2017-12-11T00:31:22.355Z,6.67
2017-12-11T00:33:50.650Z,7.37
2017-12-11T00:36:18.904Z,9.93
2017-12-11T00:38:47.160Z,20.20
2017-12-11T00:41:15.443Z,10.77
2017-12-11T00:43:43.691Z,17.10
2017-12-11T00:46:11.991Z,9.50
2017-12-11T00:48:40.300Z,12.73
2017-12-11T00:51:08.574Z,10.80
2017-12-11T00:53:36.845Z,11.17
2017-12-11T00:56:05.104Z,11.13
2017-12-11T00:58:33.404Z,10.40
2017-12-11T01:01:01.790Z,7.90
2017-12-11T01:03:30.060Z,8.13
2017-12-11T01:05:58.436Z,8.00
2017-12-11T01:08:26.688Z,8.10
2017-12-11T01:10:54.971Z,8.10
2017-12-11T01:13:23.224Z,8.77
2017-12-11T01:15:51.543Z,8.57
2017-12-11T01:18:19.836Z,5.33
2017-12-11T01:20:48.091Z,5.60
2017-12-11T01:23:16.380Z,5.47
2017-12-11T01:25:44.656Z,4.63
2017-12-11T01:28:12.907Z,8.00
2017-12-11T01:30:41.183Z,6.83
2017-12-11T01:33:09.436Z,3.40
2017-12-11T01:35:37.720Z,1.70
2017-12-11T01:38:06.045Z,4.17
2017-12-11T01:40:34.339Z,4.10
2017-12-11T01:43:02.704Z,4.77
2017-12-11T01:45:30.991Z,5.80
2017-12-11T01:47:59.263Z,1.43
2017-12-11T01:50:28.284Z,2.20
2017-12-11T01:52:57.346Z,3.90
2017-12-11T01:55:25.623Z,3.53
2017-12-11T01:57:53.866Z,2.30
2017-12-11T02:00:22.172Z,1.13
2017-12-11T02:02:50.436Z,1.77
2017-12-11T02:05:18.689Z,2.63
2017-12-11T02:07:46.951Z,2.70
2017-12-11T02:10:15.973Z,1.33
2017-12-11T02:12:44.247Z,1.83
2017-12-11T02:15:12.500Z,1.33
2017-12-11T02:17:41.518Z,2.93
2017-12-11T02:20:09.827Z,2.60
2017-12-11T02:22:38.100Z,2.63
2017-12-11T02:25:06.376Z,2.80
2017-12-11T02:27:34.668Z,2.17
2017-12-11T02:30:02.939Z,2.73
2017-12-11T02:32:31.214Z,3.60
2017-12-11T02:34:59.834Z,2.27
2017-12-11T02:37:28.871Z,2.17
2017-12-11T02:39:57.123Z,1.50
2017-12-11T02:42:25.408Z,1.43
2017-12-11T02:44:53.657Z,2.47
2017-12-11T02:47:22.672Z,2.20
2017-12-11T02:49:50.939Z,1.70
2017-12-11T02:52:19.961Z,1.73
2017-12-11T02:54:48.266Z,1.30
2017-12-11T02:57:16.520Z,1.80
2017-12-11T02:59:44.925Z,2.50
2017-12-11T03:02:13.194Z,1.40
2017-12-11T03:04:41.440Z,2.27
2017-12-11T03:07:09.694Z,1.73
2017-12-11T03:09:38.726Z,2.93
2017-12-11T03:12:06.975Z,2.50
2017-12-11T03:14:35.249Z,3.10
2017-12-11T03:17:03.499Z,2.33
2017-12-11T03:19:31.843Z,3.10
2017-12-11T03:22:00.116Z,10.00
2017-12-11T03:24:28.408Z,1.60
2017-12-11T03:26:56.703Z,1.37
2017-12-11T03:29:25.060Z,3.07
2017-12-11T03:31:53.348Z,1.33
2017-12-11T03:34:21.723Z,1.97
2017-12-11T03:36:49.961Z,3.00
2017-12-11T03:39:18.279Z,2.10
2017-12-11T03:41:46.511Z,1.93
2017-12-11T03:44:14.768Z,3.10
2017-12-11T03:46:43.815Z,3.87
2017-12-11T03:49:12.096Z,2.03
2017-12-11T03:51:40.380Z,1.50
2017-12-11T03:54:08.635Z,2.63
2017-12-11T03:56:36.883Z,2.50
2017-12-11T03:59:05.194Z,1.33
2017-12-11T04:01:33.440Z,2.70
2017-12-11T04:04:01.846Z,9.23
2017-12-11T04:06:30.083Z,2.33
2017-12-11T04:08:58.331Z,1.90
2017-12-11T04:11:27.361Z,2.63
2017-12-11T04:13:55.607Z,1.83
2017-12-11T04:16:24.648Z,2.47
2017-12-11T04:18:52.894Z,3.90
2017-12-11T04:21:21.160Z,2.37
2017-12-11T04:23:50.199Z,2.20
2017-12-11T04:26:18.444Z,1.50
2017-12-11T04:28:46.753Z,1.67
2017-12-11T04:31:15.004Z,2.47
2017-12-11T04:33:43.256Z,2.97
2017-12-11T04:36:12.336Z,1.60
2017-12-11T04:38:40.596Z,2.00
2017-12-11T04:41:08.860Z,1.40
2017-12-11T04:43:37.148Z,3.03
2017-12-11T04:46:05.409Z,2.47
2017-12-11T04:48:33.708Z,1.80
2017-12-11T04:51:01.940Z,1.87
2017-12-11T04:53:30.245Z,1.60
2017-12-11T04:55:58.488Z,3.03
2017-12-11T04:58:26.738Z,2.50
2017-12-11T05:00:55.774Z,1.93
2017-12-11T05:03:24.050Z,1.80
2017-12-11T05:05:52.326Z,1.43
2017-12-11T05:08:20.567Z,3.93
2017-12-11T05:10:49.589Z,2.00
2017-12-11T05:13:17.851Z,2.17
2017-12-11T05:15:46.873Z,2.00
2017-12-11T05:18:15.163Z,2.50
2017-12-11T05:20:43.403Z,2.33
2017-12-11T05:23:11.656Z,2.37
2017-12-11T05:25:39.929Z,3.37
2017-12-11T05:28:08.944Z,2.33
2017-12-11T05:30:37.990Z,2.00
2017-12-11T05:33:06.241Z,2.23
2017-12-11T05:35:34.548Z,3.20
2017-12-11T05:38:02.983Z,3.27
2017-12-11T05:40:31.180Z,2.90
2017-12-11T05:42:59.448Z,2.20
2017-12-11T05:45:27.751Z,2.27
2017-12-11T05:47:56.716Z,3.67
2017-12-11T05:50:25.020Z,2.47
2017-12-11T05:52:53.305Z,2.90
2017-12-11T05:55:21.702Z,2.13
2017-12-11T05:57:49.931Z,2.70
2017-12-11T06:00:18.239Z,4.00
2017-12-11T06:02:46.503Z,2.80
2017-12-11T06:05:14.756Z,3.23
2017-12-11T06:07:43.012Z,3.43
2017-12-11T06:10:11.279Z,3.33
2017-12-11T06:12:39.528Z,3.57
2017-12-11T06:15:07.803Z,3.43
2017-12-11T06:17:36.073Z,3.30
2017-12-11T06:20:04.321Z,4.20
2017-12-11T06:22:33.415Z,4.67
2017-12-11T06:25:02.428Z,4.20
2017-12-11T06:27:30.700Z,7.10
2017-12-11T06:29:58.985Z,4.80
2017-12-11T06:32:27.220Z,4.47
2017-12-11T06:34:55.491Z,4.37
2017-12-11T06:37:23.740Z,5.17
2017-12-11T06:39:52.020Z,5.87
2017-12-11T06:42:20.272Z,4.40
2017-12-11T06:44:48.572Z,3.20
2017-12-11T06:47:16.839Z,4.03
2017-12-11T06:49:45.123Z,4.10
2017-12-11T06:52:13.400Z,3.70
2017-12-11T06:54:41.679Z,5.50
2017-12-11T06:57:09.941Z,5.83
2017-12-11T06:59:38.209Z,7.33
2017-12-11T07:02:06.523Z,3.20
2017-12-11T07:04:34.806Z,6.83
2017-12-11T07:07:03.049Z,4.87
2017-12-11T07:09:31.300Z,3.83
2017-12-11T07:11:59.731Z,4.87
2017-12-11T07:14:27.965Z,6.93
2017-12-11T07:16:56.235Z,5.50
2017-12-11T07:19:24.492Z,7.40
2017-12-11T07:21:53.550Z,6.37
2017-12-11T07:24:21.808Z,4.23
2017-12-11T07:26:50.059Z,6.60
2017-12-11T07:29:18.336Z,8.23
2017-12-11T07:31:46.597Z,3.80
2017-12-11T07:34:15.636Z,7.37
2017-12-11T07:36:43.914Z,4.70
2017-12-11T07:39:12.155Z,4.57
2017-12-11T07:41:41.185Z,6.53
2017-12-11T07:44:09.436Z,6.83
2017-12-11T07:46:37.716Z,6.67
2017-12-11T07:49:06.033Z,11.37
2017-12-11T07:51:34.280Z,7.30
2017-12-11T07:54:02.587Z,5.00
2017-12-11T07:56:30.838Z,5.77
2017-12-11T07:58:59.095Z,6.00
2017-12-11T08:01:27.423Z,6.10
2017-12-11T08:03:55.677Z,7.80
2017-12-11T08:06:23.923Z,7.33
2017-12-11T08:08:52.939Z,6.83
2017-12-11T08:11:21.215Z,8.97
2017-12-11T08:13:49.468Z,8.27
2017-12-11T08:16:18.495Z,6.43
2017-12-11T08:18:46.751Z,7.50
2017-12-11T08:21:15.828Z,5.97
2017-12-11T08:23:44.847Z,7.50
2017-12-11T08:26:13.104Z,13.67
2017-12-11T08:28:42.135Z,9.67
2017-12-11T08:31:10.393Z,5.93
2017-12-11T08:33:38.676Z,8.73
2017-12-11T08:36:06.977Z,7.77
2017-12-11T08:38:35.940Z,7.93
2017-12-11T08:41:04.254Z,10.23
2017-12-11T08:43:32.526Z,7.20
2017-12-11T08:46:00.808Z,11.30
2017-12-11T08:48:29.121Z,7.00
2017-12-11T08:50:58.148Z,8.73
2017-12-11T08:53:26.430Z,5.77
2017-12-11T08:55:54.690Z,9.07
2017-12-11T08:58:23.732Z,6.90
2017-12-11T09:00:51.992Z,7.20
2017-12-11T09:03:20.264Z,8.67
2017-12-11T09:05:48.515Z,12.27
2017-12-11T09:08:16.772Z,7.23
2017-12-11T09:10:45.808Z,7.43
2017-12-11T09:13:14.107Z,10.43
2017-12-11T09:15:42.486Z,5.47
2017-12-11T09:18:10.740Z,10.00
2017-12-11T09:20:39.027Z,8.40
2017-12-11T09:23:07.276Z,6.80
2017-12-11T09:25:35.527Z,9.40
2017-12-11T09:28:04.558Z,9.70
2017-12-11T09:30:32.807Z,9.40
2017-12-11T09:33:01.851Z,8.10
2017-12-11T09:35:30.115Z,6.20
2017-12-11T09:37:58.363Z,9.03
2017-12-11T09:40:26.640Z,7.60
2017-12-11T09:42:55.652Z,9.87
2017-12-11T09:45:23.936Z,10.97
2017-12-11T09:47:52.183Z,8.83
2017-12-11T09:50:21.232Z,9.30
2017-12-11T09:52:49.509Z,7.37
2017-12-11T09:55:17.763Z,10.63
2017-12-11T09:57:46.036Z,10.93
2017-12-11T10:00:14.291Z,9.73
2017-12-11T10:02:42.574Z,10.97
2017-12-11T10:05:10.824Z,10.53
2017-12-11T10:07:39.891Z,11.93
2017-12-11T10:10:08.175Z,14.80
2017-12-11T10:12:36.444Z,16.33
2017-12-11T10:15:04.722Z,13.40
2017-12-11T10:17:32.976Z,11.23
2017-12-11T10:20:01.248Z,9.10
2017-12-11T10:22:29.516Z,10.50
2017-12-11T10:24:57.792Z,8.93
2017-12-11T10:27:26.039Z,16.00
2017-12-11T10:29:55.096Z,8.90
2017-12-11T10:32:23.376Z,12.70
2017-12-11T10:34:51.634Z,12.50
2017-12-11T10:37:19.925Z,13.60
2017-12-11T10:39:48.193Z,8.97
2017-12-11T10:42:16.481Z,10.67
2017-12-11T10:44:44.732Z,13.27
2017-12-11T10:47:12.996Z,10.87
2017-12-11T10:49:41.279Z,9.00
2017-12-11T10:52:09.539Z,12.33
2017-12-11T10:54:38.581Z,11.13
2017-12-11T10:57:06.832Z,15.07
2017-12-11T10:59:35.139Z,13.87
2017-12-11T11:02:03.384Z,12.00
2017-12-11T11:04:31.693Z,10.47
2017-12-11T11:06:59.961Z,9.90
2017-12-11T11:09:28.216Z,10.80
2017-12-11T11:11:56.492Z,11.10
2017-12-11T11:14:24.751Z,12.80
2017-12-11T11:16:53.074Z,14.93
2017-12-11T11:19:21.324Z,12.00
2017-12-11T11:21:49.576Z,14.90
2017-12-11T11:24:18.626Z,16.10
2017-12-11T11:26:46.873Z,13.10
2017-12-11T11:29:15.176Z,14.50
2017-12-11T11:31:43.453Z,18.27
2017-12-11T11:34:11.737Z,16.63
2017-12-11T11:36:39.996Z,15.87
2017-12-11T11:39:08.259Z,12.83
2017-12-11T11:41:36.537Z,13.57
2017-12-11T11:44:04.803Z,11.67
2017-12-11T11:46:33.223Z,17.63
2017-12-11T11:49:01.475Z,14.60
2017-12-11T11:51:29.760Z,19.23
2017-12-11T11:53:58.030Z,11.37
2017-12-11T11:56:26.287Z,14.53
2017-12-11T11:58:54.611Z,14.10
2017-12-11T12:01:22.860Z,14.83
2017-12-11T12:03:51.167Z,15.87
2017-12-11T12:06:19.440Z,14.43
2017-12-11T12:08:47.717Z,12.20
2017-12-11T12:11:15.977Z,19.10
2017-12-11T12:13:44.247Z,13.13
2017-12-11T12:16:12.548Z,14.00
2017-12-11T12:18:40.795Z,17.40
2017-12-11T12:21:09.072Z,13.63
2017-12-11T12:23:37.376Z,15.90
2017-12-11T12:26:05.662Z,17.10
2017-12-11T12:28:33.911Z,14.73
2017-12-11T12:31:02.206Z,15.53
2017-12-11T12:33:30.465Z,13.90
2017-12-11T12:35:58.723Z,16.53
2017-12-11T12:38:27.041Z,17.30
2017-12-11T12:40:55.284Z,12.70
2017-12-11T12:43:23.586Z,15.90
2017-12-11T12:45:51.974Z,13.70
2017-12-11T12:48:20.220Z,14.03
2017-12-11T12:50:48.495Z,12.23
2017-12-11T12:53:16.750Z,15.40
2017-12-11T12:55:45.896Z,10.67
2017-12-11T12:58:14.172Z,9.37
2017-12-11T13:00:42.548Z,14.63
2017-12-11T13:03:10.818Z,14.50
2017-12-11T13:05:39.087Z,11.27
2017-12-11T13:08:07.355Z,11.17
2017-12-11T13:10:35.611Z,11.77
2017-12-11T13:13:04.753Z,15.33
2017-12-11T13:15:33.008Z,14.40
2017-12-11T13:18:01.288Z,11.63
2017-12-11T13:20:29.584Z,16.63
2017-12-11T13:22:57.840Z,9.47
2017-12-11T13:25:26.117Z,14.43
2017-12-11T13:27:54.371Z,10.20
2017-12-11T13:30:22.653Z,11.13
2017-12-11T13:32:50.904Z,9.20
2017-12-11T13:35:19.183Z,11.63
2017-12-11T13:37:48.212Z,12.90
2017-12-11T13:40:16.478Z,25.50
2017-12-11T13:42:44.750Z,11.53
2017-12-11T13:45:13.008Z,15.10
2017-12-11T13:47:41.368Z,13.90
2017-12-11T13:50:09.624Z,15.00
2017-12-11T13:52:37.910Z,13.63
2017-12-11T13:55:06.169Z,14.60
2017-12-11T13:57:34.419Z,12.20
2017-12-11T14:00:03.460Z,28.20
2017-12-11T14:02:31.715Z,12.27
2017-12-11T14:05:00.033Z,25.17
2017-12-11T14:07:28.292Z,17.00
2017-12-11T14:09:56.597Z,8.70
2017-12-11T14:12:24.865Z,10.90
2017-12-11T14:14:53.120Z,11.50
2017-12-11T14:17:21.387Z,8.93
2017-12-11T14:19:49.661Z,11.73
2017-12-11T14:22:17.905Z,12.77
2017-12-11T14:24:46.947Z,23.20
2017-12-11T14:27:15.249Z,10.47
2017-12-11T14:29:43.512Z,16.70
2017-12-11T14:32:11.767Z,11.20
2017-12-11T14:34:40.046Z,10.10
2017-12-11T14:37:08.296Z,11.13
2017-12-11T14:39:37.329Z,10.47
2017-12-11T14:42:05.612Z,10.30
2017-12-11T14:44:33.893Z,10.03
2017-12-11T14:47:02.173Z,13.50
2017-12-11T14:49:30.462Z,8.70
2017-12-11T14:51:58.740Z,12.63
2017-12-11T14:54:27.000Z,12.20
2017-12-11T14:56:55.297Z,10.30
2017-12-11T14:59:23.576Z,13.13
2017-12-11T15:01:51.839Z,9.50
2017-12-11T15:04:20.133Z,12.50
2017-12-11T15:06:48.439Z,7.57
2017-12-11T15:09:17.698Z,10.20
2017-12-11T15:11:45.940Z,13.50
2017-12-11T15:14:14.199Z,13.00
2017-12-11T15:16:43.231Z,9.50
2017-12-11T15:19:11.500Z,13.23
2017-12-11T15:21:39.767Z,9.03
2017-12-11T15:24:08.036Z,10.13
2017-12-11T15:26:36.297Z,11.83
2017-12-11T15:29:05.454Z,8.67
2017-12-11T15:31:33.722Z,12.17
2017-12-11T15:34:02.009Z,10.83
2017-12-11T15:36:30.261Z,13.40
2017-12-11T15:38:58.537Z,11.47
2017-12-11T15:41:26.808Z,11.13
2017-12-11T15:43:55.217Z,9.87
2017-12-11T15:46:23.489Z,10.83
2017-12-11T15:48:51.768Z,9.20
2017-12-11T15:51:20.015Z,9.53
2017-12-11T15:53:48.291Z,8.27
2017-12-11T15:56:16.549Z,12.90
2017-12-11T15:58:44.838Z,11.63
2017-12-11T16:01:13.119Z,10.23
2017-12-11T16:03:41.368Z,12.30
2017-12-11T16:06:10.422Z,12.60
2017-12-11T16:08:38.808Z,9.77
2017-12-11T16:11:07.178Z,9.80
2017-12-11T16:13:35.423Z,8.33
2017-12-11T16:16:03.682Z,8.40
2017-12-11T16:18:32.940Z,11.27
2017-12-11T16:21:01.175Z,10.90
2017-12-11T16:23:29.464Z,8.47
2017-12-11T16:25:57.732Z,15.00
2017-12-11T16:28:25.984Z,13.33
2017-12-11T16:30:55.140Z,12.00
2017-12-11T16:33:23.396Z,11.30
2017-12-11T16:35:51.667Z,14.40
2017-12-11T16:38:19.956Z,10.63
2017-12-11T16:40:48.217Z,13.67
2017-12-11T16:43:16.507Z,10.43
2017-12-11T16:45:44.984Z,11.67
2017-12-11T16:48:13.376Z,14.87
2017-12-11T16:50:41.615Z,9.37
2017-12-11T16:53:09.864Z,10.70
2017-12-11T16:55:38.922Z,10.97
2017-12-11T16:58:07.167Z,7.60
2017-12-11T17:00:35.441Z,10.57
2017-12-11T17:03:03.748Z,11.37
2017-12-11T17:05:32.004Z,11.97
2017-12-11T17:08:00.307Z,11.23
2017-12-11T17:10:28.570Z,11.87
2017-12-11T17:12:56.874Z,12.00
2017-12-11T17:15:25.128Z,10.90
2017-12-11T17:17:53.389Z,18.63
2017-12-11T17:20:21.672Z,10.90
2017-12-11T17:22:49.926Z,7.47
2017-12-11T17:25:18.200Z,16.07
2017-12-11T17:27:46.520Z,8.90
2017-12-11T17:30:15.111Z,12.60
2017-12-11T17:32:43.489Z,12.37
2017-12-11T17:35:11.764Z,9.63
2017-12-11T17:37:40.036Z,11.30
2017-12-11T17:40:08.315Z,12.43
2017-12-11T17:42:36.707Z,11.03
2017-12-11T17:45:04.967Z,9.53
2017-12-11T17:47:33.224Z,12.10
2017-12-11T17:50:01.507Z,9.83
2017-12-11T17:52:29.756Z,12.70
2017-12-11T17:54:58.006Z,14.30
2017-12-11T17:57:27.073Z,11.20
2017-12-11T17:59:55.336Z,16.13
2017-12-11T18:02:23.599Z,11.13
2017-12-11T18:04:51.894Z,9.33
2017-12-11T18:07:20.169Z,9.60
2017-12-11T18:09:48.499Z,14.13
2017-12-11T18:12:17.561Z,11.33
2017-12-11T18:14:45.852Z,10.50
2017-12-11T18:17:14.107Z,18.60
2017-12-11T18:19:42.386Z,14.03
2017-12-11T18:22:10.656Z,12.40
2017-12-11T18:24:38.920Z,11.07
2017-12-11T18:27:07.198Z,13.53
2017-12-11T18:29:35.452Z,10.10
2017-12-11T18:32:03.708Z,14.00
2017-12-11T18:34:32.767Z,14.00
2017-12-11T18:37:01.036Z,12.87
2017-12-11T18:39:29.321Z,13.80
2017-12-11T18:41:57.573Z,14.77
2017-12-11T18:44:25.868Z,19.10
2017-12-11T18:46:54.153Z,21.47
2017-12-11T18:49:22.534Z,17.57
2017-12-11T18:51:50.816Z,14.23
2017-12-11T18:54:19.079Z,14.33
2017-12-11T18:56:47.332Z,17.37
2017-12-11T18:59:15.620Z,14.20
2017-12-11T19:01:43.903Z,17.83
2017-12-11T19:04:12.408Z,12.40
2017-12-11T19:06:40.656Z,15.93
2017-12-11T19:09:08.903Z,11.67
2017-12-11T19:11:37.246Z,19.07
2017-12-11T19:14:05.503Z,14.20
2017-12-11T19:16:33.793Z,31.23
2017-12-11T19:19:02.159Z,22.87
2017-12-11T19:21:30.426Z,11.77
2017-12-11T19:23:58.708Z,12.90
2017-12-11T19:26:26.978Z,16.27
2017-12-11T19:28:55.279Z,16.27
2017-12-11T19:31:23.531Z,15.07
2017-12-11T19:33:51.780Z,12.37
2017-12-11T19:36:20.104Z,12.53
2017-12-11T19:38:48.352Z,13.00
2017-12-11T19:41:16.647Z,16.30
2017-12-11T19:43:44.901Z,13.50
2017-12-11T19:46:13.155Z,12.70
2017-12-11T19:48:42.206Z,11.80
2017-12-11T19:51:10.496Z,10.60
2017-12-11T19:53:38.773Z,10.30
2017-12-11T19:56:08.543Z,10.60
2017-12-11T19:58:36.805Z,13.93
2017-12-11T20:01:05.932Z,14.03
2017-12-11T20:03:34.168Z,12.50
2017-12-11T20:06:03.432Z,14.13
2017-12-11T20:08:31.668Z,14.60
2017-12-11T20:11:00.080Z,10.33
2017-12-11T20:13:28.341Z,18.77
2017-12-11T20:15:56.628Z,14.40
2017-12-11T20:18:25.101Z,13.03
2017-12-11T20:20:53.353Z,9.77
2017-12-11T20:23:22.365Z,16.17
2017-12-11T20:25:50.662Z,13.00
2017-12-11T20:28:18.916Z,12.07
2017-12-11T20:30:47.339Z,18.30
2017-12-11T20:33:17.236Z,25.67
2017-12-11T20:35:45.534Z,15.20
2017-12-11T20:38:13.779Z,10.77
2017-12-11T20:40:42.040Z,12.40
2017-12-11T20:43:10.319Z,12.10
2017-12-11T20:45:38.573Z,13.60
2017-12-11T20:48:06.839Z,9.80
2017-12-11T20:50:35.906Z,12.07
2017-12-11T20:53:04.202Z,11.00
2017-12-11T20:55:33.252Z,11.50
2017-12-11T20:58:01.577Z,8.40
2017-12-11T21:00:29.843Z,13.13
2017-12-11T21:02:58.880Z,14.37
2017-12-11T21:05:27.131Z,11.30
2017-12-11T21:07:56.287Z,9.97
2017-12-11T21:10:24.537Z,10.07
2017-12-11T21:12:52.787Z,11.63
2017-12-11T21:15:21.093Z,11.23
2017-12-11T21:17:49.357Z,8.50
2017-12-11T21:20:18.444Z,11.17
2017-12-11T21:22:47.447Z,12.27
2017-12-11T21:25:15.721Z,15.47
2017-12-11T21:27:44.018Z,15.83
2017-12-11T21:30:12.276Z,16.10
2017-12-11T21:32:40.597Z,8.80
2017-12-11T21:35:08.973Z,13.20
2017-12-11T21:37:37.253Z,12.07
2017-12-11T21:40:05.489Z,13.63
2017-12-11T21:42:33.763Z,11.53
2017-12-11T21:45:02.086Z,12.37
2017-12-11T21:47:30.362Z,9.20
2017-12-11T21:49:58.625Z,13.63
2017-12-11T21:52:26.867Z,8.03
2017-12-11T21:54:55.189Z,9.37
2017-12-11T21:57:23.473Z,9.43
2017-12-11T21:59:51.733Z,9.90
2017-12-11T22:02:20.069Z,11.97
2017-12-11T22:04:48.502Z,11.30
2017-12-11T22:07:16.755Z,9.23
2017-12-11T22:09:45.007Z,10.10
2017-12-11T22:12:13.437Z,12.20
2017-12-11T22:14:41.685Z,10.60
2017-12-11T22:17:09.984Z,13.53
2017-12-11T22:19:38.227Z,10.17
2017-12-11T22:22:06.492Z,15.73
2017-12-11T22:24:34.931Z,11.73
2017-12-11T22:27:03.220Z,9.57
2017-12-11T22:29:31.464Z,7.43
2017-12-11T22:31:59.716Z,8.10
2017-12-11T22:34:27.987Z,8.63
2017-12-11T22:36:56.411Z,8.30
2017-12-11T22:39:24.648Z,8.67
2017-12-11T22:41:52.968Z,8.30
2017-12-11T22:44:21.208Z,7.50
2017-12-11T22:46:49.490Z,11.67
2017-12-11T22:49:17.741Z,7.63
2017-12-11T22:51:46.893Z,8.43
2017-12-11T22:54:15.150Z,7.43
2017-12-11T22:56:43.422Z,6.40
2017-12-11T22:59:11.827Z,8.23
2017-12-11T23:01:40.067Z,8.40
2017-12-11T23:04:08.382Z,8.20
2017-12-11T23:06:36.624Z,9.30
2017-12-11T23:09:04.938Z,5.97
2017-12-11T23:11:33.206Z,8.50
2017-12-11T23:14:01.530Z,8.30
2017-12-11T23:16:30.562Z,9.77
2017-12-11T23:18:58.894Z,6.63
2017-12-11T23:21:27.189Z,10.87
2017-12-11T23:23:55.439Z,8.97
2017-12-11T23:26:24.515Z,6.10
2017-12-11T23:28:52.759Z,5.70
2017-12-11T23:31:21.056Z,7.73
2017-12-11T23:33:49.445Z,6.77
2017-12-11T23:36:17.688Z,10.77
2017-12-11T23:38:45.952Z,5.87
2017-12-11T23:41:14.387Z,7.33
2017-12-11T23:43:42.733Z,6.93
2017-12-11T23:46:10.989Z,7.70
2017-12-11T23:48:39.371Z,6.60
2017-12-11T23:51:08.137Z,5.80
2017-12-11T23:53:37.172Z,8.80
2017-12-11T23:56:05.660Z,6.90
2017-12-11T23:58:34.068Z,5.83
